sensor_id;sensor_type;location;lat;lon;timestamp;P1;durP1;ratioP1;P2;durP2;ratioP2
20697;SDS011;10508;50.956;4.640;2023-02-28T00:00:12;6.63;;;3.30;;
20697;SDS011;10508;50.956;4.640;2023-02-28T00:02:40;8.20;;;3.45;;
20697;SDS011;10508;50.956;4.640;2023-02-28T00:05:07;6.30;;;3.33;;
20697;SDS011;10508;50.956;4.640;2023-02-28T00:07:34;6.30;;;3.15;;
20697;SDS011;10508;50.956;4.640;2023-02-28T00:10:01;6.13;;;3.35;;
20697;SDS011;10508;50.956;4.640;2023-02-28T00:12:27;10.32;;;3.60;;
20697;SDS011;10508;50.956;4.640;2023-02-28T00:14:52;5.93;;;3.08;;
20697;SDS011;10508;50.956;4.640;2023-02-28T00:17:18;4.40;;;2.65;;
20697;SDS011;10508;50.956;4.640;2023-02-28T00:19:49;6.95;;;3.47;;
20697;SDS011;10508;50.956;4.640;2023-02-28T00:22:16;4.90;;;2.92;;
20697;SDS011;10508;50.956;4.640;2023-02-28T00:24:43;6.13;;;3.15;;
20697;SDS011;10508;50.956;4.640;2023-02-28T00:27:09;8.75;;;3.65;;
20697;SDS011;10508;50.956;4.640;2023-02-28T00:29:34;5.47;;;3.15;;
20697;SDS011;10508;50.956;4.640;2023-02-28T00:32:00;8.70;;;3.33;;
20697;SDS011;10508;50.956;4.640;2023-02-28T00:34:26;6.30;;;3.13;;
20697;SDS011;10508;50.956;4.640;2023-02-28T00:36:52;6.50;;;3.05;;
20697;SDS011;10508;50.956;4.640;2023-02-28T00:39:17;7.88;;;3.47;;
20697;SDS011;10508;50.956;4.640;2023-02-28T00:41:43;7.22;;;3.72;;
20697;SDS011;10508;50.956;4.640;2023-02-28T00:44:09;8.93;;;3.85;;
20697;SDS011;10508;50.956;4.640;2023-02-28T00:46:36;5.55;;;3.83;;
20697;SDS011;10508;50.956;4.640;2023-02-28T00:49:01;7.07;;;3.80;;
20697;SDS011;10508;50.956;4.640;2023-02-28T00:51:27;6.22;;;3.58;;
20697;SDS011;10508;50.956;4.640;2023-02-28T00:53:53;5.82;;;3.47;;
20697;SDS011;10508;50.956;4.640;2023-02-28T00:56:19;5.18;;;3.35;;
20697;SDS011;10508;50.956;4.640;2023-02-28T00:58:44;11.15;;;3.42;;
20697;SDS011;10508;50.956;4.640;2023-02-28T01:01:10;7.30;;;3.92;;
20697;SDS011;10508;50.956;4.640;2023-02-28T01:03:36;7.63;;;4.18;;
20697;SDS011;10508;50.956;4.640;2023-02-28T01:06:01;9.63;;;3.40;;
20697;SDS011;10508;50.956;4.640;2023-02-28T01:08:27;6.82;;;3.53;;
20697;SDS011;10508;50.956;4.640;2023-02-28T01:10:53;7.40;;;3.67;;
20697;SDS011;10508;50.956;4.640;2023-02-28T01:13:19;13.10;;;4.45;;
20697;SDS011;10508;50.956;4.640;2023-02-28T01:15:46;7.88;;;3.85;;
20697;SDS011;10508;50.956;4.640;2023-02-28T01:18:15;8.82;;;3.67;;
20697;SDS011;10508;50.956;4.640;2023-02-28T01:20:41;6.53;;;4.05;;
20697;SDS011;10508;50.956;4.640;2023-02-28T01:23:07;7.28;;;3.92;;
20697;SDS011;10508;50.956;4.640;2023-02-28T01:25:35;11.65;;;3.85;;
20697;SDS011;10508;50.956;4.640;2023-02-28T01:28:01;8.70;;;4.22;;
20697;SDS011;10508;50.956;4.640;2023-02-28T01:30:27;11.20;;;4.40;;
20697;SDS011;10508;50.956;4.640;2023-02-28T01:32:53;9.05;;;3.38;;
20697;SDS011;10508;50.956;4.640;2023-02-28T01:35:19;13.95;;;4.60;;
20697;SDS011;10508;50.956;4.640;2023-02-28T01:37:44;10.18;;;4.25;;
20697;SDS011;10508;50.956;4.640;2023-02-28T01:40:10;12.40;;;4.47;;
20697;SDS011;10508;50.956;4.640;2023-02-28T01:42:37;10.98;;;4.38;;
20697;SDS011;10508;50.956;4.640;2023-02-28T01:45:08;9.63;;;4.18;;
20697;SDS011;10508;50.956;4.640;2023-02-28T01:47:42;9.10;;;4.28;;
20697;SDS011;10508;50.956;4.640;2023-02-28T01:50:10;13.10;;;4.38;;
20697;SDS011;10508;50.956;4.640;2023-02-28T01:52:42;7.63;;;4.18;;
20697;SDS011;10508;50.956;4.640;2023-02-28T01:55:10;8.20;;;4.45;;
20697;SDS011;10508;50.956;4.640;2023-02-28T01:57:38;9.93;;;4.80;;
20697;SDS011;10508;50.956;4.640;2023-02-28T02:00:11;10.27;;;4.30;;
20697;SDS011;10508;50.956;4.640;2023-02-28T02:02:43;11.23;;;4.50;;
20697;SDS011;10508;50.956;4.640;2023-02-28T02:05:17;9.55;;;4.25;;
20697;SDS011;10508;50.956;4.640;2023-02-28T02:08:04;11.15;;;4.32;;
20697;SDS011;10508;50.956;4.640;2023-02-28T02:10:45;13.52;;;5.47;;
20697;SDS011;10508;50.956;4.640;2023-02-28T02:18:30;17.48;;;5.07;;
20697;SDS011;10508;50.956;4.640;2023-02-28T02:31:57;9.57;;;4.95;;
20697;SDS011;10508;50.956;4.640;2023-02-28T02:34:43;14.90;;;4.50;;
20697;SDS011;10508;50.956;4.640;2023-02-28T02:37:36;10.68;;;5.22;;
20697;SDS011;10508;50.956;4.640;2023-02-28T02:45:10;11.90;;;5.45;;
20697;SDS011;10508;50.956;4.640;2023-02-28T02:47:44;9.90;;;5.18;;
20697;SDS011;10508;50.956;4.640;2023-02-28T02:50:14;10.52;;;5.22;;
20697;SDS011;10508;50.956;4.640;2023-02-28T02:52:47;10.50;;;4.97;;
20697;SDS011;10508;50.956;4.640;2023-02-28T02:55:17;16.05;;;5.47;;
20697;SDS011;10508;50.956;4.640;2023-02-28T02:57:56;10.60;;;5.18;;
20697;SDS011;10508;50.956;4.640;2023-02-28T03:00:27;14.45;;;5.53;;
20697;SDS011;10508;50.956;4.640;2023-02-28T03:02:57;10.90;;;4.95;;
20697;SDS011;10508;50.956;4.640;2023-02-28T03:05:28;11.52;;;5.10;;
20697;SDS011;10508;50.956;4.640;2023-02-28T03:08:09;11.65;;;4.80;;
20697;SDS011;10508;50.956;4.640;2023-02-28T03:10:36;13.10;;;5.63;;
20697;SDS011;10508;50.956;4.640;2023-02-28T03:15:43;10.43;;;4.78;;
20697;SDS011;10508;50.956;4.640;2023-02-28T03:21:20;11.95;;;5.30;;
20697;SDS011;10508;50.956;4.640;2023-02-28T03:24:04;12.73;;;5.00;;
20697;SDS011;10508;50.956;4.640;2023-02-28T03:27:06;11.95;;;5.55;;
20697;SDS011;10508;50.956;4.640;2023-02-28T03:32:14;13.88;;;5.60;;
20697;SDS011;10508;50.956;4.640;2023-02-28T03:34:51;12.63;;;5.60;;
20697;SDS011;10508;50.956;4.640;2023-02-28T03:37:21;12.52;;;5.68;;
20697;SDS011;10508;50.956;4.640;2023-02-28T03:39:53;10.40;;;4.85;;
20697;SDS011;10508;50.956;4.640;2023-02-28T03:42:25;12.65;;;5.72;;
20697;SDS011;10508;50.956;4.640;2023-02-28T03:44:54;9.45;;;4.93;;
20697;SDS011;10508;50.956;4.640;2023-02-28T03:47:44;20.40;;;6.38;;
20697;SDS011;10508;50.956;4.640;2023-02-28T03:50:24;16.10;;;5.68;;
20697;SDS011;10508;50.956;4.640;2023-02-28T03:52:57;13.85;;;5.75;;
20697;SDS011;10508;50.956;4.640;2023-02-28T03:55:47;21.63;;;5.30;;
20697;SDS011;10508;50.956;4.640;2023-02-28T03:58:20;11.77;;;5.82;;
20697;SDS011;10508;50.956;4.640;2023-02-28T04:00:49;11.13;;;5.40;;
20697;SDS011;10508;50.956;4.640;2023-02-28T04:03:20;10.63;;;4.70;;
20697;SDS011;10508;50.956;4.640;2023-02-28T04:05:57;11.38;;;5.57;;
20697;SDS011;10508;50.956;4.640;2023-02-28T04:08:24;16.65;;;5.93;;
20697;SDS011;10508;50.956;4.640;2023-02-28T04:13:45;11.18;;;5.32;;
20697;SDS011;10508;50.956;4.640;2023-02-28T04:16:11;16.38;;;5.80;;
20697;SDS011;10508;50.956;4.640;2023-02-28T04:18:37;10.02;;;5.35;;
20697;SDS011;10508;50.956;4.640;2023-02-28T04:21:03;10.50;;;5.60;;
20697;SDS011;10508;50.956;4.640;2023-02-28T04:23:30;13.40;;;5.60;;
20697;SDS011;10508;50.956;4.640;2023-02-28T04:25:55;13.60;;;5.25;;
20697;SDS011;10508;50.956;4.640;2023-02-28T04:28:21;19.65;;;6.28;;
20697;SDS011;10508;50.956;4.640;2023-02-28T04:30:46;13.35;;;5.55;;
20697;SDS011;10508;50.956;4.640;2023-02-28T04:33:12;15.60;;;5.70;;
20697;SDS011;10508;50.956;4.640;2023-02-28T04:35:38;11.05;;;5.70;;
20697;SDS011;10508;50.956;4.640;2023-02-28T04:38:03;12.27;;;6.32;;
20697;SDS011;10508;50.956;4.640;2023-02-28T04:40:29;19.08;;;6.93;;
20697;SDS011;10508;50.956;4.640;2023-02-28T04:42:55;12.90;;;5.40;;
20697;SDS011;10508;50.956;4.640;2023-02-28T04:45:20;11.80;;;5.28;;
20697;SDS011;10508;50.956;4.640;2023-02-28T04:47:46;17.13;;;5.82;;
20697;SDS011;10508;50.956;4.640;2023-02-28T04:50:30;16.33;;;6.22;;
20697;SDS011;10508;50.956;4.640;2023-02-28T04:52:56;12.27;;;6.10;;
20697;SDS011;10508;50.956;4.640;2023-02-28T04:55:21;11.27;;;5.55;;
20697;SDS011;10508;50.956;4.640;2023-02-28T04:57:47;13.93;;;6.20;;
20697;SDS011;10508;50.956;4.640;2023-02-28T05:00:13;14.52;;;5.72;;
20697;SDS011;10508;50.956;4.640;2023-02-28T05:02:41;10.45;;;5.85;;
20697;SDS011;10508;50.956;4.640;2023-02-28T05:05:07;14.02;;;5.57;;
20697;SDS011;10508;50.956;4.640;2023-02-28T05:07:33;15.43;;;5.97;;
20697;SDS011;10508;50.956;4.640;2023-02-28T05:09:59;15.18;;;5.70;;
20697;SDS011;10508;50.956;4.640;2023-02-28T05:12:24;19.33;;;5.55;;
20697;SDS011;10508;50.956;4.640;2023-02-28T05:14:50;15.80;;;6.40;;
20697;SDS011;10508;50.956;4.640;2023-02-28T05:17:16;12.20;;;6.00;;
20697;SDS011;10508;50.956;4.640;2023-02-28T05:19:41;9.40;;;5.95;;
20697;SDS011;10508;50.956;4.640;2023-02-28T05:22:12;11.98;;;5.50;;
20697;SDS011;10508;50.956;4.640;2023-02-28T05:24:40;10.55;;;6.05;;
20697;SDS011;10508;50.956;4.640;2023-02-28T05:27:07;10.02;;;5.40;;
20697;SDS011;10508;50.956;4.640;2023-02-28T05:29:33;9.52;;;5.63;;
20697;SDS011;10508;50.956;4.640;2023-02-28T05:31:59;12.95;;;5.90;;
20697;SDS011;10508;50.956;4.640;2023-02-28T05:34:24;12.52;;;5.93;;
20697;SDS011;10508;50.956;4.640;2023-02-28T05:36:50;12.35;;;5.90;;
20697;SDS011;10508;50.956;4.640;2023-02-28T05:39:16;11.32;;;5.75;;
20697;SDS011;10508;50.956;4.640;2023-02-28T05:41:42;13.65;;;5.53;;
20697;SDS011;10508;50.956;4.640;2023-02-28T05:44:08;10.73;;;5.78;;
20697;SDS011;10508;50.956;4.640;2023-02-28T05:46:34;10.95;;;5.25;;
20697;SDS011;10508;50.956;4.640;2023-02-28T05:48:59;13.82;;;6.38;;
20697;SDS011;10508;50.956;4.640;2023-02-28T05:51:26;12.45;;;5.65;;
20697;SDS011;10508;50.956;4.640;2023-02-28T05:53:51;9.98;;;4.95;;
20697;SDS011;10508;50.956;4.640;2023-02-28T05:56:17;13.18;;;5.93;;
20697;SDS011;10508;50.956;4.640;2023-02-28T05:58:43;11.88;;;5.43;;
20697;SDS011;10508;50.956;4.640;2023-02-28T06:01:22;10.27;;;5.40;;
20697;SDS011;10508;50.956;4.640;2023-02-28T06:03:51;17.55;;;5.60;;
20697;SDS011;10508;50.956;4.640;2023-02-28T06:06:17;13.15;;;5.63;;
20697;SDS011;10508;50.956;4.640;2023-02-28T06:08:43;11.52;;;5.10;;
20697;SDS011;10508;50.956;4.640;2023-02-28T06:11:09;12.88;;;5.90;;
20697;SDS011;10508;50.956;4.640;2023-02-28T06:13:35;14.85;;;5.97;;
20697;SDS011;10508;50.956;4.640;2023-02-28T06:16:01;12.45;;;5.68;;
20697;SDS011;10508;50.956;4.640;2023-02-28T06:18:27;14.38;;;6.18;;
20697;SDS011;10508;50.956;4.640;2023-02-28T06:20:53;13.43;;;6.13;;
20697;SDS011;10508;50.956;4.640;2023-02-28T06:23:19;13.73;;;5.65;;
20697;SDS011;10508;50.956;4.640;2023-02-28T06:25:46;11.57;;;5.45;;
20697;SDS011;10508;50.956;4.640;2023-02-28T06:28:12;16.23;;;6.13;;
20697;SDS011;10508;50.956;4.640;2023-02-28T06:30:38;11.90;;;5.55;;
20697;SDS011;10508;50.956;4.640;2023-02-28T06:33:04;13.80;;;6.25;;
20697;SDS011;10508;50.956;4.640;2023-02-28T06:35:30;13.55;;;5.65;;
20697;SDS011;10508;50.956;4.640;2023-02-28T06:37:56;10.82;;;5.78;;
20697;SDS011;10508;50.956;4.640;2023-02-28T06:40:21;13.35;;;6.30;;
20697;SDS011;10508;50.956;4.640;2023-02-28T06:42:47;16.55;;;5.75;;
20697;SDS011;10508;50.956;4.640;2023-02-28T06:45:13;16.13;;;5.75;;
20697;SDS011;10508;50.956;4.640;2023-02-28T06:47:39;11.35;;;6.10;;
20697;SDS011;10508;50.956;4.640;2023-02-28T06:50:07;12.57;;;6.13;;
20697;SDS011;10508;50.956;4.640;2023-02-28T06:52:36;11.88;;;5.40;;
20697;SDS011;10508;50.956;4.640;2023-02-28T06:55:03;11.43;;;6.00;;
20697;SDS011;10508;50.956;4.640;2023-02-28T06:57:30;11.40;;;5.90;;
20697;SDS011;10508;50.956;4.640;2023-02-28T06:59:58;10.88;;;5.47;;
20697;SDS011;10508;50.956;4.640;2023-02-28T07:02:24;15.68;;;5.63;;
20697;SDS011;10508;50.956;4.640;2023-02-28T07:04:51;16.52;;;5.68;;
20697;SDS011;10508;50.956;4.640;2023-02-28T07:07:16;14.20;;;5.00;;
20697;SDS011;10508;50.956;4.640;2023-02-28T07:09:42;13.68;;;5.45;;
20697;SDS011;10508;50.956;4.640;2023-02-28T07:12:07;11.80;;;5.32;;
20697;SDS011;10508;50.956;4.640;2023-02-28T07:14:33;15.57;;;5.85;;
20697;SDS011;10508;50.956;4.640;2023-02-28T07:17:01;13.73;;;5.57;;
20697;SDS011;10508;50.956;4.640;2023-02-28T07:19:26;13.82;;;6.45;;
20697;SDS011;10508;50.956;4.640;2023-02-28T07:21:53;8.82;;;4.93;;
20697;SDS011;10508;50.956;4.640;2023-02-28T07:24:18;11.95;;;5.82;;
20697;SDS011;10508;50.956;4.640;2023-02-28T07:26:44;8.77;;;4.72;;
20697;SDS011;10508;50.956;4.640;2023-02-28T07:29:09;13.23;;;4.65;;
20697;SDS011;10508;50.956;4.640;2023-02-28T07:31:35;15.05;;;5.47;;
20697;SDS011;10508;50.956;4.640;2023-02-28T07:34:01;10.25;;;4.97;;
20697;SDS011;10508;50.956;4.640;2023-02-28T07:36:27;9.98;;;4.40;;
20697;SDS011;10508;50.956;4.640;2023-02-28T07:38:53;11.13;;;5.05;;
20697;SDS011;10508;50.956;4.640;2023-02-28T07:41:19;9.02;;;4.25;;
20697;SDS011;10508;50.956;4.640;2023-02-28T07:43:46;8.25;;;4.32;;
20697;SDS011;10508;50.956;4.640;2023-02-28T07:46:13;9.25;;;5.35;;
20697;SDS011;10508;50.956;4.640;2023-02-28T07:48:40;11.45;;;4.07;;
20697;SDS011;10508;50.956;4.640;2023-02-28T07:51:07;14.65;;;4.70;;
20697;SDS011;10508;50.956;4.640;2023-02-28T07:53:32;9.52;;;4.45;;
20697;SDS011;10508;50.956;4.640;2023-02-28T07:55:59;12.15;;;4.05;;
20697;SDS011;10508;50.956;4.640;2023-02-28T07:58:26;8.55;;;4.40;;
20697;SDS011;10508;50.956;4.640;2023-02-28T08:00:53;8.63;;;3.97;;
20697;SDS011;10508;50.956;4.640;2023-02-28T08:03:19;7.85;;;4.63;;
20697;SDS011;10508;50.956;4.640;2023-02-28T08:05:46;8.02;;;3.65;;
20697;SDS011;10508;50.956;4.640;2023-02-28T08:08:13;8.77;;;4.10;;
20697;SDS011;10508;50.956;4.640;2023-02-28T08:10:40;7.95;;;4.10;;
20697;SDS011;10508;50.956;4.640;2023-02-28T08:13:05;10.55;;;4.10;;
20697;SDS011;10508;50.956;4.640;2023-02-28T08:15:31;8.02;;;4.05;;
20697;SDS011;10508;50.956;4.640;2023-02-28T08:17:57;6.45;;;3.30;;
20697;SDS011;10508;50.956;4.640;2023-02-28T08:20:23;8.82;;;4.22;;
20697;SDS011;10508;50.956;4.640;2023-02-28T08:22:50;6.60;;;3.63;;
20697;SDS011;10508;50.956;4.640;2023-02-28T08:25:16;10.70;;;4.43;;
20697;SDS011;10508;50.956;4.640;2023-02-28T08:27:41;7.90;;;3.97;;
20697;SDS011;10508;50.956;4.640;2023-02-28T08:30:08;6.78;;;3.47;;
20697;SDS011;10508;50.956;4.640;2023-02-28T08:32:36;5.72;;;3.20;;
20697;SDS011;10508;50.956;4.640;2023-02-28T08:35:01;7.00;;;3.30;;
20697;SDS011;10508;50.956;4.640;2023-02-28T08:37:28;7.05;;;3.80;;
20697;SDS011;10508;50.956;4.640;2023-02-28T08:39:53;10.77;;;3.92;;
20697;SDS011;10508;50.956;4.640;2023-02-28T08:42:19;4.53;;;2.70;;
20697;SDS011;10508;50.956;4.640;2023-02-28T08:44:45;6.90;;;3.38;;
20697;SDS011;10508;50.956;4.640;2023-02-28T08:47:10;5.68;;;2.97;;
20697;SDS011;10508;50.956;4.640;2023-02-28T08:49:36;7.93;;;3.00;;
20697;SDS011;10508;50.956;4.640;2023-02-28T08:52:02;5.95;;;2.90;;
20697;SDS011;10508;50.956;4.640;2023-02-28T08:54:28;4.95;;;2.38;;
20697;SDS011;10508;50.956;4.640;2023-02-28T08:56:56;5.15;;;2.97;;
20697;SDS011;10508;50.956;4.640;2023-02-28T08:59:22;7.32;;;2.85;;
20697;SDS011;10508;50.956;4.640;2023-02-28T09:01:47;5.68;;;2.63;;
20697;SDS011;10508;50.956;4.640;2023-02-28T09:04:13;5.70;;;2.85;;
20697;SDS011;10508;50.956;4.640;2023-02-28T09:06:39;4.82;;;2.97;;
20697;SDS011;10508;50.956;4.640;2023-02-28T09:09:05;7.60;;;2.80;;
20697;SDS011;10508;50.956;4.640;2023-02-28T09:11:32;6.15;;;2.50;;
20697;SDS011;10508;50.956;4.640;2023-02-28T09:13:59;7.63;;;2.65;;
20697;SDS011;10508;50.956;4.640;2023-02-28T09:16:25;5.28;;;2.88;;
20697;SDS011;10508;50.956;4.640;2023-02-28T09:18:51;6.20;;;2.80;;
20697;SDS011;10508;50.956;4.640;2023-02-28T09:21:18;4.78;;;2.67;;
20697;SDS011;10508;50.956;4.640;2023-02-28T09:23:44;5.45;;;3.10;;
20697;SDS011;10508;50.956;4.640;2023-02-28T09:26:21;3.47;;;2.15;;
20697;SDS011;10508;50.956;4.640;2023-02-28T09:28:52;4.20;;;2.03;;
20697;SDS011;10508;50.956;4.640;2023-02-28T09:31:20;7.32;;;2.50;;
20697;SDS011;10508;50.956;4.640;2023-02-28T09:33:51;6.75;;;2.13;;
20697;SDS011;10508;50.956;4.640;2023-02-28T09:36:18;4.68;;;2.25;;
20697;SDS011;10508;50.956;4.640;2023-02-28T09:38:44;8.00;;;2.53;;
20697;SDS011;10508;50.956;4.640;2023-02-28T09:41:15;9.48;;;2.78;;
20697;SDS011;10508;50.956;4.640;2023-02-28T09:43:45;2.97;;;2.25;;
20697;SDS011;10508;50.956;4.640;2023-02-28T09:46:36;4.85;;;2.20;;
20697;SDS011;10508;50.956;4.640;2023-02-28T09:49:19;8.63;;;2.72;;
20697;SDS011;10508;50.956;4.640;2023-02-28T09:52:00;11.02;;;2.22;;
20697;SDS011;10508;50.956;4.640;2023-02-28T09:54:34;2.90;;;1.83;;
20697;SDS011;10508;50.956;4.640;2023-02-28T09:59:48;2.75;;;1.50;;
20697;SDS011;10508;50.956;4.640;2023-02-28T10:05:43;2.70;;;1.17;;
20697;SDS011;10508;50.956;4.640;2023-02-28T10:08:14;3.95;;;1.83;;
20697;SDS011;10508;50.956;4.640;2023-02-28T10:10:57;4.18;;;1.60;;
20697;SDS011;10508;50.956;4.640;2023-02-28T10:24:34;2.33;;;1.30;;
20697;SDS011;10508;50.956;4.640;2023-02-28T10:27:15;2.17;;;1.20;;
20697;SDS011;10508;50.956;4.640;2023-02-28T10:29:44;2.83;;;1.30;;
20697;SDS011;10508;50.956;4.640;2023-02-28T10:32:18;2.40;;;1.50;;
20697;SDS011;10508;50.956;4.640;2023-02-28T10:35:00;5.60;;;1.92;;
20697;SDS011;10508;50.956;4.640;2023-02-28T10:37:42;2.85;;;1.52;;
20697;SDS011;10508;50.956;4.640;2023-02-28T10:40:32;2.20;;;1.48;;
20697;SDS011;10508;50.956;4.640;2023-02-28T10:43:05;1.85;;;1.25;;
20697;SDS011;10508;50.956;4.640;2023-02-28T10:45:52;4.30;;;1.45;;
20697;SDS011;10508;50.956;4.640;2023-02-28T10:48:33;3.45;;;1.50;;
20697;SDS011;10508;50.956;4.640;2023-02-28T10:51:01;1.98;;;1.55;;
20697;SDS011;10508;50.956;4.640;2023-02-28T10:53:48;3.30;;;1.65;;
20697;SDS011;10508;50.956;4.640;2023-02-28T10:56:17;2.15;;;1.50;;
20697;SDS011;10508;50.956;4.640;2023-02-28T11:03:55;3.88;;;1.63;;
20697;SDS011;10508;50.956;4.640;2023-02-28T11:06:25;1.80;;;1.48;;
20697;SDS011;10508;50.956;4.640;2023-02-28T11:08:57;2.60;;;1.60;;
20697;SDS011;10508;50.956;4.640;2023-02-28T11:11:44;1.83;;;1.20;;
20697;SDS011;10508;50.956;4.640;2023-02-28T11:14:22;3.28;;;1.60;;
20697;SDS011;10508;50.956;4.640;2023-02-28T11:16:51;2.88;;;1.63;;
20697;SDS011;10508;50.956;4.640;2023-02-28T11:19:20;18.08;;;3.05;;
20697;SDS011;10508;50.956;4.640;2023-02-28T11:21:53;4.43;;;1.63;;
20697;SDS011;10508;50.956;4.640;2023-02-28T11:26:54;2.03;;;1.50;;
20697;SDS011;10508;50.956;4.640;2023-02-28T11:29:23;4.10;;;2.00;;
20697;SDS011;10508;50.956;4.640;2023-02-28T11:34:43;3.08;;;1.80;;
20697;SDS011;10508;50.956;4.640;2023-02-28T11:37:19;2.92;;;1.75;;
20697;SDS011;10508;50.956;4.640;2023-02-28T11:39:45;2.90;;;1.60;;
20697;SDS011;10508;50.956;4.640;2023-02-28T11:46:02;2.08;;;1.60;;
20697;SDS011;10508;50.956;4.640;2023-02-28T11:51:08;3.30;;;1.63;;
20697;SDS011;10508;50.956;4.640;2023-02-28T12:07:02;2.10;;;1.60;;
20697;SDS011;10508;50.956;4.640;2023-02-28T12:23:19;3.08;;;1.60;;
20697;SDS011;10508;50.956;4.640;2023-02-28T12:28:21;2.67;;;1.67;;
20697;SDS011;10508;50.956;4.640;2023-02-28T12:30:59;2.08;;;1.40;;
20697;SDS011;10508;50.956;4.640;2023-02-28T12:33:34;2.78;;;1.55;;
20697;SDS011;10508;50.956;4.640;2023-02-28T12:36:09;4.85;;;1.58;;
20697;SDS011;10508;50.956;4.640;2023-02-28T12:38:44;2.35;;;1.70;;
20697;SDS011;10508;50.956;4.640;2023-02-28T12:43:52;2.40;;;1.60;;
20697;SDS011;10508;50.956;4.640;2023-02-28T12:48:55;3.85;;;1.40;;
20697;SDS011;10508;50.956;4.640;2023-02-28T12:51:22;3.38;;;1.63;;
20697;SDS011;10508;50.956;4.640;2023-02-28T12:59:55;3.60;;;1.83;;
20697;SDS011;10508;50.956;4.640;2023-02-28T13:05:49;1.98;;;1.25;;
20697;SDS011;10508;50.956;4.640;2023-02-28T13:11:01;2.40;;;1.58;;
20697;SDS011;10508;50.956;4.640;2023-02-28T13:13:28;2.50;;;1.80;;
20697;SDS011;10508;50.956;4.640;2023-02-28T13:16:05;3.97;;;1.90;;
20697;SDS011;10508;50.956;4.640;2023-02-28T13:18:45;5.30;;;2.00;;
20697;SDS011;10508;50.956;4.640;2023-02-28T13:21:25;2.45;;;1.70;;
20697;SDS011;10508;50.956;4.640;2023-02-28T13:29:00;3.03;;;1.60;;
20697;SDS011;10508;50.956;4.640;2023-02-28T13:31:29;4.07;;;2.13;;
20697;SDS011;10508;50.956;4.640;2023-02-28T13:36:30;2.90;;;2.22;;
20697;SDS011;10508;50.956;4.640;2023-02-28T13:39:03;3.40;;;1.70;;
20697;SDS011;10508;50.956;4.640;2023-02-28T13:42:22;4.63;;;2.00;;
20697;SDS011;10508;50.956;4.640;2023-02-28T13:47:51;3.97;;;2.13;;
20697;SDS011;10508;50.956;4.640;2023-02-28T13:50:27;3.03;;;1.95;;
20697;SDS011;10508;50.956;4.640;2023-02-28T13:55:49;3.38;;;1.95;;
20697;SDS011;10508;50.956;4.640;2023-02-28T14:09:00;3.38;;;2.35;;
20697;SDS011;10508;50.956;4.640;2023-02-28T14:11:32;7.03;;;1.95;;
20697;SDS011;10508;50.956;4.640;2023-02-28T14:14:00;3.50;;;2.05;;
20697;SDS011;10508;50.956;4.640;2023-02-28T14:16:46;10.02;;;2.40;;
20697;SDS011;10508;50.956;4.640;2023-02-28T14:19:24;2.45;;;1.60;;
20697;SDS011;10508;50.956;4.640;2023-02-28T14:24:34;4.00;;;2.22;;
20697;SDS011;10508;50.956;4.640;2023-02-28T14:37:58;3.40;;;2.28;;
20697;SDS011;10508;50.956;4.640;2023-02-28T14:40:30;4.35;;;2.17;;
20697;SDS011;10508;50.956;4.640;2023-02-28T14:43:01;4.28;;;2.33;;
20697;SDS011;10508;50.956;4.640;2023-02-28T14:45:29;5.72;;;2.15;;
20697;SDS011;10508;50.956;4.640;2023-02-28T14:47:57;6.38;;;2.22;;
20697;SDS011;10508;50.956;4.640;2023-02-28T14:50:27;3.55;;;1.92;;
20697;SDS011;10508;50.956;4.640;2023-02-28T14:52:57;4.28;;;2.10;;
20697;SDS011;10508;50.956;4.640;2023-02-28T14:55:28;5.20;;;2.17;;
20697;SDS011;10508;50.956;4.640;2023-02-28T14:57:57;3.22;;;2.13;;
20697;SDS011;10508;50.956;4.640;2023-02-28T15:00:29;2.75;;;2.05;;
20697;SDS011;10508;50.956;4.640;2023-02-28T15:02:57;5.75;;;2.22;;
20697;SDS011;10508;50.956;4.640;2023-02-28T15:08:01;3.65;;;1.90;;
20697;SDS011;10508;50.956;4.640;2023-02-28T15:10:39;4.32;;;2.33;;
20697;SDS011;10508;50.956;4.640;2023-02-28T15:13:18;2.70;;;1.80;;
20697;SDS011;10508;50.956;4.640;2023-02-28T15:15:57;3.60;;;2.03;;
20697;SDS011;10508;50.956;4.640;2023-02-28T15:18:30;6.32;;;2.35;;
20697;SDS011;10508;50.956;4.640;2023-02-28T15:21:13;2.53;;;1.92;;
20697;SDS011;10508;50.956;4.640;2023-02-28T15:23:46;6.65;;;2.30;;
20697;SDS011;10508;50.956;4.640;2023-02-28T15:26:19;3.67;;;1.80;;
20697;SDS011;10508;50.956;4.640;2023-02-28T15:28:49;5.40;;;2.30;;
20697;SDS011;10508;50.956;4.640;2023-02-28T15:31:27;2.95;;;1.80;;
20697;SDS011;10508;50.956;4.640;2023-02-28T15:33:58;4.18;;;1.95;;
20697;SDS011;10508;50.956;4.640;2023-02-28T15:36:29;7.57;;;2.15;;
20697;SDS011;10508;50.956;4.640;2023-02-28T15:38:58;4.97;;;2.70;;
20697;SDS011;10508;50.956;4.640;2023-02-28T15:41:36;7.93;;;2.78;;
20697;SDS011;10508;50.956;4.640;2023-02-28T15:49:23;4.70;;;2.40;;
20697;SDS011;10508;50.956;4.640;2023-02-28T15:51:50;4.38;;;2.20;;
20697;SDS011;10508;50.956;4.640;2023-02-28T15:54:24;3.40;;;1.90;;
20697;SDS011;10508;50.956;4.640;2023-02-28T15:56:57;3.70;;;2.15;;
20697;SDS011;10508;50.956;4.640;2023-02-28T15:59:49;3.55;;;2.47;;
20697;SDS011;10508;50.956;4.640;2023-02-28T16:02:21;5.15;;;2.00;;
20697;SDS011;10508;50.956;4.640;2023-02-28T16:04:59;7.80;;;2.38;;
20697;SDS011;10508;50.956;4.640;2023-02-28T16:07:25;6.45;;;3.10;;
20697;SDS011;10508;50.956;4.640;2023-02-28T16:09:50;7.60;;;2.53;;
20697;SDS011;10508;50.956;4.640;2023-02-28T16:12:16;5.43;;;2.03;;
20697;SDS011;10508;50.956;4.640;2023-02-28T16:14:42;3.47;;;2.17;;
20697;SDS011;10508;50.956;4.640;2023-02-28T16:17:20;3.92;;;2.30;;
20697;SDS011;10508;50.956;4.640;2023-02-28T16:19:48;4.22;;;2.28;;
20697;SDS011;10508;50.956;4.640;2023-02-28T16:22:14;4.78;;;2.05;;
20697;SDS011;10508;50.956;4.640;2023-02-28T16:24:39;5.72;;;2.03;;
20697;SDS011;10508;50.956;4.640;2023-02-28T16:27:06;3.55;;;1.98;;
20697;SDS011;10508;50.956;4.640;2023-02-28T16:29:40;4.00;;;2.63;;
20697;SDS011;10508;50.956;4.640;2023-02-28T16:32:06;4.78;;;2.10;;
20697;SDS011;10508;50.956;4.640;2023-02-28T16:34:32;7.55;;;2.72;;
20697;SDS011;10508;50.956;4.640;2023-02-28T16:36:58;5.55;;;2.50;;
20697;SDS011;10508;50.956;4.640;2023-02-28T16:39:23;4.10;;;2.40;;
20697;SDS011;10508;50.956;4.640;2023-02-28T16:41:49;5.07;;;2.78;;
20697;SDS011;10508;50.956;4.640;2023-02-28T16:44:29;5.82;;;2.33;;
20697;SDS011;10508;50.956;4.640;2023-02-28T16:46:59;7.05;;;3.05;;
20697;SDS011;10508;50.956;4.640;2023-02-28T16:49:25;4.93;;;2.55;;
20697;SDS011;10508;50.956;4.640;2023-02-28T16:51:51;3.60;;;2.58;;
20697;SDS011;10508;50.956;4.640;2023-02-28T16:54:17;7.70;;;3.20;;
20697;SDS011;10508;50.956;4.640;2023-02-28T16:56:44;16.35;;;6.53;;
20697;SDS011;10508;50.956;4.640;2023-02-28T16:59:12;9.35;;;4.10;;
20697;SDS011;10508;50.956;4.640;2023-02-28T17:01:47;23.05;;;8.90;;
20697;SDS011;10508;50.956;4.640;2023-02-28T17:04:12;10.98;;;4.13;;
20697;SDS011;10508;50.956;4.640;2023-02-28T17:06:39;6.95;;;3.80;;
20697;SDS011;10508;50.956;4.640;2023-02-28T17:09:05;9.75;;;4.13;;
20697;SDS011;10508;50.956;4.640;2023-02-28T17:11:33;9.70;;;3.33;;
20697;SDS011;10508;50.956;4.640;2023-02-28T17:13:59;9.82;;;3.70;;
20697;SDS011;10508;50.956;4.640;2023-02-28T17:16:30;7.18;;;3.53;;
20697;SDS011;10508;50.956;4.640;2023-02-28T17:18:58;5.93;;;3.10;;
20697;SDS011;10508;50.956;4.640;2023-02-28T17:21:26;14.45;;;4.72;;
20697;SDS011;10508;50.956;4.640;2023-02-28T17:23:52;11.93;;;5.53;;
20697;SDS011;10508;50.956;4.640;2023-02-28T17:26:18;12.80;;;5.03;;
20697;SDS011;10508;50.956;4.640;2023-02-28T17:29:00;10.10;;;4.10;;
20697;SDS011;10508;50.956;4.640;2023-02-28T17:31:26;7.35;;;3.50;;
20697;SDS011;10508;50.956;4.640;2023-02-28T17:33:53;8.63;;;3.55;;
20697;SDS011;10508;50.956;4.640;2023-02-28T17:36:23;9.05;;;3.13;;